createdAt,value
2017-07-31T00:00:32.227Z,5.03
2017-07-31T00:03:03.631Z,4.80
2017-07-31T00:05:35.131Z,5.57
2017-07-31T00:08:06.720Z,6.07
2017-07-31T00:10:37.846Z,6.13
2017-07-31T00:13:09.790Z,5.63
2017-07-31T00:15:41.828Z,5.30
2017-07-31T00:18:13.617Z,5.70
2017-07-31T00:20:46.292Z,5.43
2017-07-31T00:23:29.958Z,4.83
2017-07-31T00:35:46.706Z,3.37
2017-07-31T00:38:17.852Z,3.87
2017-07-31T00:40:49.271Z,3.60
2017-07-31T00:43:21.301Z,3.27
2017-07-31T00:45:53.350Z,3.10
2017-07-31T00:48:24.890Z,2.63
2017-07-31T00:50:58.410Z,3.33
2017-07-31T00:53:28.400Z,3.33
2017-07-31T00:55:58.932Z,2.87
2017-07-31T00:58:30.997Z,3.67
2017-07-31T01:01:04.518Z,3.00
2017-07-31T01:03:35.129Z,2.90
2017-07-31T01:06:08.113Z,3.17
2017-07-31T01:08:40.178Z,3.43
2017-07-31T01:11:14.617Z,3.70
2017-07-31T01:13:45.635Z,3.47
2017-07-31T01:16:18.218Z,3.47
2017-07-31T01:18:50.284Z,3.40
2017-07-31T01:21:22.712Z,3.43
2017-07-31T01:23:54.723Z,4.27
2017-07-31T01:26:26.759Z,3.80
2017-07-31T01:28:57.321Z,2.70
2017-07-31T01:31:30.827Z,3.70
2017-07-31T01:34:03.603Z,3.47
2017-07-31T01:36:35.359Z,3.43
2017-07-31T01:39:07.426Z,3.10
2017-07-31T01:41:39.917Z,3.30
2017-07-31T01:44:11.555Z,3.60
2017-07-31T01:46:43.929Z,4.17
2017-07-31T01:49:15.994Z,3.20
2017-07-31T01:51:48.013Z,3.67
2017-07-31T01:54:19.817Z,3.57
2017-07-31T01:56:51.580Z,2.67
2017-07-31T01:59:24.875Z,3.50
2017-07-31T02:01:56.121Z,3.30
2017-07-31T02:04:28.695Z,3.33
2017-07-31T02:07:00.760Z,3.90
2017-07-31T02:09:33.747Z,3.47
2017-07-31T02:12:07.217Z,3.43
2017-07-31T02:14:40.260Z,4.00
2017-07-31T02:17:10.869Z,3.40
2017-07-31T02:19:43.853Z,3.80
2017-07-31T02:22:16.844Z,4.37
2017-07-31T02:24:49.832Z,4.40
2017-07-31T02:27:21.921Z,3.93
2017-07-31T02:29:53.040Z,4.17
2017-07-31T02:32:27.253Z,4.10
2017-07-31T02:34:59.534Z,3.90
2017-07-31T02:37:28.583Z,4.57
2017-07-31T02:40:03.144Z,4.00
2017-07-31T02:42:36.133Z,4.83
2017-07-31T02:45:08.199Z,4.43
2017-07-31T02:47:39.343Z,4.73
2017-07-31T02:50:13.249Z,3.80
2017-07-31T02:52:45.621Z,4.77
2017-07-31T02:55:16.877Z,4.53
2017-07-31T02:57:50.908Z,4.60
2017-07-31T03:00:22.433Z,4.23
2017-07-31T03:02:54.498Z,4.70
2017-07-31T03:05:28.030Z,4.70
2017-07-31T03:07:59.554Z,4.03
2017-07-31T03:10:29.774Z,5.40
2017-07-31T03:13:02.164Z,4.40
2017-07-31T03:15:34.211Z,4.70
2017-07-31T03:18:05.970Z,4.50
2017-07-31T03:20:38.309Z,3.80
2017-07-31T03:23:11.330Z,5.00
2017-07-31T03:25:43.371Z,4.00
2017-07-31T03:28:16.402Z,4.30
2017-07-31T03:30:47.476Z,4.50
2017-07-31T03:33:18.985Z,5.07
2017-07-31T03:35:51.047Z,4.37
2017-07-31T03:38:24.567Z,3.93
2017-07-31T03:40:55.175Z,4.27
2017-07-31T03:43:29.616Z,4.60
2017-07-31T03:46:01.152Z,4.23
2017-07-31T03:48:34.137Z,4.43
2017-07-31T03:51:04.667Z,4.17
2017-07-31T03:53:36.727Z,4.93
2017-07-31T03:56:08.744Z,5.13
2017-07-31T03:58:40.559Z,4.67
2017-07-31T04:01:12.314Z,4.50
2017-07-31T04:03:45.301Z,4.00
2017-07-31T04:06:16.449Z,4.20
2017-07-31T04:08:50.882Z,4.47
2017-07-31T04:11:20.909Z,4.43
2017-07-31T04:13:54.492Z,4.50
2017-07-31T04:16:27.473Z,4.20
2017-07-31T04:18:59.539Z,5.30
2017-07-31T04:21:30.996Z,3.90
2017-07-31T04:24:03.374Z,3.70
2017-07-31T04:26:35.059Z,3.40
2017-07-31T04:29:07.100Z,4.10
2017-07-31T04:31:37.103Z,4.17
2017-07-31T04:34:09.782Z,4.63
2017-07-31T04:36:42.770Z,4.93
2017-07-31T04:39:14.834Z,4.43
2017-07-31T04:41:46.287Z,4.10
2017-07-31T04:44:19.892Z,3.60
2017-07-31T04:46:51.957Z,4.10
2017-07-31T04:49:25.444Z,4.53
2017-07-31T04:51:57.930Z,4.97
2017-07-31T04:54:29.075Z,4.17
2017-07-31T04:57:03.294Z,4.03
2017-07-31T04:59:35.049Z,4.50
2017-07-31T05:02:07.569Z,3.23
2017-07-31T05:04:39.202Z,4.13
2017-07-31T05:07:10.328Z,3.33
2017-07-31T05:09:41.161Z,4.10
2017-07-31T05:12:13.224Z,4.23
2017-07-31T05:14:46.212Z,3.93
2017-07-31T05:17:19.743Z,4.10
2017-07-31T05:19:53.108Z,4.03
2017-07-31T05:22:24.804Z,4.20
2017-07-31T05:24:56.885Z,4.97
2017-07-31T05:27:28.386Z,4.03
2017-07-31T05:30:00.452Z,3.43
2017-07-31T05:32:32.519Z,3.93
2017-07-31T05:35:05.815Z,4.20
2017-07-31T05:37:36.648Z,3.60
2017-07-31T05:40:07.790Z,3.70
2017-07-31T05:42:40.470Z,3.70
2017-07-31T05:45:13.764Z,3.93
2017-07-31T05:47:45.830Z,3.37
2017-07-31T05:50:16.973Z,3.97
2017-07-31T05:52:49.335Z,4.10
2017-07-31T05:55:22.373Z,3.30
2017-07-31T05:57:54.706Z,3.87
2017-07-31T06:00:28.000Z,3.33
2017-07-31T06:03:01.300Z,3.90
2017-07-31T06:05:32.135Z,3.37
2017-07-31T06:08:04.487Z,3.50
2017-07-31T06:10:36.569Z,3.20
2017-07-31T06:13:09.547Z,4.17
2017-07-31T06:15:42.242Z,3.80
2017-07-31T06:18:16.149Z,3.47
2017-07-31T06:20:48.213Z,3.90
2017-07-31T06:23:22.122Z,3.80
2017-07-31T06:25:53.268Z,3.20
2017-07-31T06:28:26.693Z,3.00
2017-07-31T06:30:59.240Z,2.90
2017-07-31T06:33:32.226Z,3.37
2017-07-31T06:36:04.295Z,2.80
2017-07-31T06:38:35.442Z,2.83
2017-07-31T06:41:09.657Z,2.33
2017-07-31T06:43:42.875Z,3.00
2017-07-31T06:46:14.401Z,3.40
2017-07-31T06:48:46.474Z,2.80
2017-07-31T06:51:18.533Z,3.13
2017-07-31T06:53:51.525Z,3.10
2017-07-31T06:56:22.665Z,3.17
2017-07-31T06:58:54.119Z,3.33
2017-07-31T07:01:26.792Z,2.87
2017-07-31T07:03:59.284Z,2.40
2017-07-31T07:06:30.013Z,2.90
2017-07-31T07:09:00.844Z,2.83
2017-07-31T07:11:34.142Z,2.30
2017-07-31T07:14:05.017Z,2.33
2017-07-31T07:16:37.957Z,2.20
2017-07-31T07:19:11.254Z,2.30
2017-07-31T07:21:43.019Z,2.90
2017-07-31T07:24:13.543Z,2.57
2017-07-31T07:26:45.606Z,2.70
2017-07-31T07:29:16.135Z,2.27
2017-07-31T07:31:48.703Z,1.90
2017-07-31T07:34:21.735Z,2.33
2017-07-31T07:36:52.806Z,2.50
2017-07-31T07:39:25.325Z,2.90
2017-07-31T07:41:55.855Z,2.10
2017-07-31T07:44:28.222Z,1.90
2017-07-31T07:47:02.438Z,2.00
2017-07-31T07:49:33.582Z,2.07
2017-07-31T07:52:06.576Z,1.83
2017-07-31T07:54:37.101Z,2.63
2017-07-31T07:57:11.625Z,2.20
2017-07-31T07:59:43.689Z,2.50
2017-07-31T08:02:16.982Z,2.30
2017-07-31T08:04:49.276Z,2.20
2017-07-31T08:07:20.807Z,2.03
2017-07-31T08:09:52.874Z,2.13
2017-07-31T08:12:26.372Z,2.00
2017-07-31T08:14:57.002Z,1.90
2017-07-31T08:17:29.991Z,2.17
2017-07-31T08:20:02.981Z,1.77
2017-07-31T08:22:35.623Z,2.33
2017-07-31T08:25:08.608Z,1.77
2017-07-31T08:27:41.634Z,1.70
2017-07-31T08:30:13.686Z,1.70
2017-07-31T08:32:48.748Z,1.40
2017-07-31T08:35:18.749Z,2.00
2017-07-31T08:37:52.357Z,2.00
2017-07-31T08:40:24.416Z,1.47
2017-07-31T08:42:57.403Z,1.90
2017-07-31T08:45:28.012Z,1.40
2017-07-31T08:48:01.538Z,1.73
2017-07-31T08:50:33.605Z,2.07
2017-07-31T08:53:06.591Z,1.50
2017-07-31T08:55:40.120Z,1.80
2017-07-31T08:58:11.641Z,1.30
2017-07-31T09:00:42.789Z,2.10
2017-07-31T09:03:16.100Z,2.27
2017-07-31T09:05:49.068Z,1.80
2017-07-31T09:08:19.906Z,1.70
2017-07-31T09:10:54.415Z,1.53
2017-07-31T09:13:26.431Z,1.77
2017-07-31T09:15:57.023Z,1.57
2017-07-31T09:18:30.508Z,1.83
2017-07-31T09:21:01.156Z,1.70
2017-07-31T09:23:35.371Z,1.40
2017-07-31T09:26:06.208Z,1.40
2017-07-31T09:28:38.272Z,2.03
2017-07-31T09:31:10.336Z,1.90
2017-07-31T09:33:42.402Z,1.60
2017-07-31T09:36:13.852Z,1.80
2017-07-31T09:38:45.866Z,1.90
2017-07-31T09:41:16.448Z,1.63
2017-07-31T09:43:48.515Z,1.67
2017-07-31T09:46:20.579Z,1.43
2017-07-31T09:48:53.570Z,1.33
2017-07-31T09:51:26.081Z,1.80
2017-07-31T09:53:58.619Z,1.87
2017-07-31T09:56:30.193Z,1.77
2017-07-31T09:59:04.199Z,2.00
2017-07-31T10:01:36.045Z,1.87
2017-07-31T10:04:07.808Z,1.80
2017-07-31T10:06:41.334Z,1.70
2017-07-31T10:09:12.865Z,1.60
2017-07-31T10:11:45.844Z,2.10
2017-07-31T10:14:16.990Z,1.90
2017-07-31T10:16:49.056Z,2.30
2017-07-31T10:19:22.551Z,2.20
2017-07-31T10:21:53.191Z,2.30
2017-07-31T10:24:24.633Z,2.27
2017-07-31T10:26:56.640Z,2.10
2017-07-31T10:29:30.683Z,2.30
2017-07-31T10:32:01.714Z,2.10
2017-07-31T10:34:33.745Z,2.43
2017-07-31T10:37:05.805Z,2.47
2017-07-31T10:39:37.856Z,2.60
2017-07-31T10:42:08.488Z,2.60
2017-07-31T10:44:39.945Z,2.80
2017-07-31T10:47:13.533Z,3.03
2017-07-31T10:49:47.010Z,3.03
2017-07-31T10:52:20.050Z,2.70
2017-07-31T10:54:54.057Z,2.50
2017-07-31T10:57:25.124Z,3.10
2017-07-31T10:59:56.935Z,2.53
2017-07-31T11:02:29.963Z,3.10
2017-07-31T11:05:03.834Z,3.00
2017-07-31T11:07:36.821Z,2.37
2017-07-31T11:10:10.345Z,2.30
2017-07-31T11:12:42.385Z,3.30
2017-07-31T11:15:14.856Z,2.70
2017-07-31T11:17:46.929Z,2.93
2017-07-31T11:20:19.489Z,2.67
2017-07-31T11:22:49.535Z,2.65
2017-07-31T11:25:23.129Z,2.83
2017-07-31T11:27:54.586Z,2.80
2017-07-31T11:30:26.616Z,2.60
2017-07-31T11:32:58.635Z,3.23
2017-07-31T11:35:30.459Z,3.13
2017-07-31T11:38:03.139Z,3.37
2017-07-31T11:40:35.207Z,3.00
2017-07-31T11:43:07.274Z,2.97
2017-07-31T11:45:38.416Z,3.40
2017-07-31T11:48:09.254Z,3.00
2017-07-31T11:50:42.765Z,3.47
2017-07-31T11:53:14.327Z,4.03
2017-07-31T11:55:46.369Z,3.60
2017-07-31T11:58:17.514Z,3.50
2017-07-31T12:00:48.921Z,3.80
2017-07-31T12:03:22.946Z,3.67
2017-07-31T12:05:53.980Z,3.73
2017-07-31T12:08:28.007Z,3.33
2017-07-31T12:11:02.033Z,3.10
2017-07-31T12:13:34.516Z,3.47
2017-07-31T12:16:05.663Z,3.53
2017-07-31T12:18:37.731Z,3.00
2017-07-31T12:21:11.640Z,3.40
2017-07-31T12:23:44.624Z,3.13
2017-07-31T12:26:17.920Z,3.40
2017-07-31T12:28:48.761Z,3.73
2017-07-31T12:31:22.660Z,3.20
2017-07-31T12:33:54.732Z,3.53
2017-07-31T12:36:27.719Z,4.00
2017-07-31T12:38:58.261Z,3.83
2017-07-31T12:41:30.278Z,3.30
2017-07-31T12:44:03.298Z,3.13
2017-07-31T12:46:35.364Z,3.83
2017-07-31T12:49:08.345Z,4.00
2017-07-31T12:51:41.971Z,3.47
2017-07-31T12:54:16.395Z,3.27
2017-07-31T12:56:48.470Z,3.30
2017-07-31T12:59:20.502Z,3.23
2017-07-31T13:01:52.981Z,3.00
2017-07-31T13:04:25.546Z,3.60
2017-07-31T13:06:58.035Z,3.40
2017-07-31T13:09:28.561Z,3.63
2017-07-31T13:12:00.605Z,3.30
2017-07-31T13:14:32.631Z,3.33
2017-07-31T13:17:04.666Z,3.00
2017-07-31T13:19:36.215Z,3.30
2017-07-31T13:22:08.294Z,3.70
2017-07-31T13:24:41.264Z,2.90
2017-07-31T13:27:14.250Z,3.77
2017-07-31T13:29:44.785Z,3.20
2017-07-31T13:32:18.388Z,2.93
2017-07-31T13:34:51.375Z,3.13
2017-07-31T13:37:23.934Z,3.07
2017-07-31T13:39:56.946Z,2.87
2017-07-31T13:42:28.489Z,3.35
2017-07-31T13:44:59.637Z,3.23
2017-07-31T13:47:34.072Z,3.70
2017-07-31T13:50:06.101Z,3.07
2017-07-31T13:52:40.751Z,3.87
2017-07-31T13:55:12.206Z,3.50
2017-07-31T13:57:42.728Z,2.63
2017-07-31T14:00:14.787Z,3.10
2017-07-31T14:02:46.853Z,2.40
2017-07-31T14:05:18.004Z,3.27
2017-07-31T14:07:49.754Z,2.70
2017-07-31T14:10:20.901Z,4.30
2017-07-31T14:12:52.043Z,3.07
2017-07-31T14:15:23.801Z,3.10
2017-07-31T14:17:55.869Z,2.90
2017-07-31T14:20:26.398Z,3.40
2017-07-31T14:22:59.997Z,3.10
2017-07-31T14:25:31.448Z,2.40
2017-07-31T14:28:01.985Z,2.73
2017-07-31T14:30:35.502Z,3.30
2017-07-31T14:33:07.031Z,3.20
2017-07-31T14:35:37.586Z,2.87
2017-07-31T14:38:11.473Z,3.00
2017-07-31T14:40:44.168Z,2.80
2017-07-31T14:43:16.216Z,3.30
2017-07-31T14:45:49.216Z,2.80
2017-07-31T14:48:21.274Z,2.60
2017-07-31T14:50:54.284Z,3.00
2017-07-31T14:53:29.406Z,2.60
2017-07-31T14:56:00.800Z,3.10
2017-07-31T14:58:35.831Z,3.13
2017-07-31T15:01:08.369Z,2.90
2017-07-31T15:03:38.888Z,2.60
2017-07-31T15:06:10.942Z,2.60
2017-07-31T15:08:41.502Z,3.00
2017-07-31T15:11:14.466Z,3.50
2017-07-31T15:13:45.615Z,3.47
2017-07-31T15:16:19.524Z,3.00
2017-07-31T15:18:54.161Z,5.40
2017-07-31T15:21:26.721Z,3.10
2017-07-31T15:24:02.782Z,3.20
2017-07-31T15:26:35.161Z,3.10
2017-07-31T15:29:09.223Z,2.50
2017-07-31T15:31:40.821Z,3.00
2017-07-31T15:34:12.277Z,2.77
2017-07-31T15:36:44.288Z,3.13
2017-07-31T15:39:17.017Z,2.90
2017-07-31T15:41:49.327Z,2.60
2017-07-31T15:44:19.923Z,3.10
2017-07-31T15:46:52.907Z,2.53
2017-07-31T15:49:26.445Z,3.05
2017-07-31T15:51:56.424Z,3.03
2017-07-31T15:54:30.950Z,3.17
2017-07-31T15:57:03.016Z,3.00
2017-07-31T15:59:34.160Z,3.08
2017-07-31T16:02:05.301Z,3.20
2017-07-31T16:04:37.634Z,3.43
2017-07-31T16:07:09.713Z,3.03
2017-07-31T16:09:42.419Z,3.53
2017-07-31T16:12:14.485Z,3.00
2017-07-31T16:14:46.828Z,3.37
2017-07-31T16:17:17.393Z,3.50
2017-07-31T16:19:59.596Z,3.33
2017-07-31T16:22:31.678Z,3.53
2017-07-31T16:25:03.726Z,3.27
2017-07-31T16:27:37.018Z,2.57
2017-07-31T16:30:08.787Z,3.93
2017-07-31T16:32:39.633Z,3.50
2017-07-31T16:35:11.164Z,3.50
2017-07-31T16:37:42.196Z,3.90
2017-07-31T16:40:36.238Z,3.40
2017-07-31T16:43:28.119Z,3.33
2017-07-31T16:46:10.324Z,3.87
2017-07-31T16:48:49.151Z,3.40
2017-07-31T16:51:21.271Z,4.20
2017-07-31T16:53:51.488Z,5.23
2017-07-31T16:56:25.037Z,5.80
2017-07-31T16:58:56.484Z,4.70
2017-07-31T17:01:27.635Z,3.70
2017-07-31T17:04:00.925Z,3.80
2017-07-31T17:06:32.374Z,3.30
2017-07-31T17:09:04.439Z,3.20
2017-07-31T17:11:35.724Z,4.17
2017-07-31T17:14:06.425Z,3.33
2017-07-31T17:16:38.178Z,3.87
2017-07-31T17:19:09.325Z,4.00
2017-07-31T17:21:43.775Z,4.17
2017-07-31T17:24:15.301Z,3.47
2017-07-31T17:26:50.462Z,3.37
2017-07-31T17:29:21.888Z,5.50
2017-07-31T17:31:54.566Z,6.63
2017-07-31T17:34:26.329Z,4.93
2017-07-31T17:36:59.921Z,4.50
2017-07-31T17:39:32.911Z,4.80
2017-07-31T17:42:05.901Z,5.37
2017-07-31T17:44:39.018Z,4.40
2017-07-31T17:47:09.725Z,4.10
2017-07-31T17:49:44.038Z,4.30
2017-07-31T17:52:16.630Z,4.17
2017-07-31T17:54:48.692Z,4.43
2017-07-31T17:57:21.153Z,4.00
2017-07-31T17:59:53.744Z,3.70
2017-07-31T18:02:25.810Z,3.37
2017-07-31T18:04:58.797Z,3.93
2017-07-31T18:07:31.786Z,3.90
2017-07-31T18:10:02.934Z,3.53
2017-07-31T18:12:36.220Z,3.90
2017-07-31T18:15:07.305Z,4.43
2017-07-31T18:17:39.119Z,4.13
2017-07-31T18:20:12.361Z,5.17
2017-07-31T18:22:42.944Z,4.97
2017-07-31T18:25:17.376Z,4.23
2017-07-31T18:27:48.924Z,4.40
2017-07-31T18:30:20.995Z,3.93
2017-07-31T18:32:53.368Z,5.10
2017-07-31T18:35:27.269Z,4.70
2017-07-31T18:38:02.338Z,5.47
2017-07-31T18:40:33.525Z,5.40
2017-07-31T18:43:09.305Z,5.17
2017-07-31T18:45:42.547Z,6.53
2017-07-31T18:48:16.197Z,11.20
2017-07-31T18:50:52.313Z,8.43
2017-07-31T18:53:27.395Z,6.60
2017-07-31T18:56:04.656Z,5.80
2017-07-31T18:58:39.207Z,6.00
2017-07-31T19:01:14.352Z,6.50
2017-07-31T19:03:49.180Z,9.43
2017-07-31T19:06:33.528Z,5.00
2017-07-31T19:09:07.690Z,4.85
2017-07-31T19:11:40.719Z,5.53
2017-07-31T19:14:21.704Z,5.27
2017-07-31T19:16:57.776Z,5.87
2017-07-31T19:19:29.840Z,5.47
2017-07-31T19:22:04.841Z,6.10
2017-07-31T19:24:38.572Z,6.07
2017-07-31T19:27:10.893Z,5.10
2017-07-31T19:29:45.775Z,6.43
2017-07-31T19:32:18.184Z,5.12
2017-07-31T19:34:53.909Z,5.47
2017-07-31T19:37:29.004Z,6.17
2017-07-31T19:40:05.404Z,5.50
2017-07-31T19:42:39.929Z,5.67
2017-07-31T19:45:12.969Z,6.10
2017-07-31T19:47:43.749Z,5.90
2017-07-31T19:50:13.974Z,7.57
2017-07-31T19:52:47.577Z,6.50
2017-07-31T19:55:19.644Z,6.50
2017-07-31T19:57:52.623Z,6.70
2017-07-31T20:00:27.069Z,7.13
2017-07-31T20:03:00.103Z,6.40
2017-07-31T20:05:34.664Z,7.20
2017-07-31T20:08:06.729Z,6.50
2017-07-31T20:10:40.945Z,6.53
2017-07-31T20:13:13.936Z,6.37
2017-07-31T20:15:48.267Z,6.77
2017-07-31T20:18:19.902Z,5.83
2017-07-31T20:20:51.967Z,5.77
2017-07-31T20:23:23.728Z,5.63
2017-07-31T20:25:54.872Z,5.27
2017-07-31T20:28:27.857Z,5.40
2017-07-31T20:31:00.845Z,5.47
2017-07-31T20:33:32.913Z,6.33
2017-07-31T20:36:07.352Z,5.60
2017-07-31T20:38:37.959Z,5.70
2017-07-31T20:41:12.177Z,5.57
2017-07-31T20:43:43.935Z,5.80
2017-07-31T20:46:16.920Z,5.20
2017-07-31T20:48:49.504Z,6.22
2017-07-31T20:51:22.518Z,7.00
2017-07-31T20:53:54.038Z,6.07
2017-07-31T20:56:30.104Z,6.50
2017-07-31T20:59:04.319Z,6.43
2017-07-31T21:01:36.072Z,6.30
2017-07-31T21:04:16.448Z,7.20
2017-07-31T21:06:49.657Z,7.33
2017-07-31T21:09:21.691Z,6.80
2017-07-31T21:11:56.315Z,6.37
2017-07-31T21:14:29.304Z,6.43
2017-07-31T21:17:03.756Z,6.23
2017-07-31T21:19:34.786Z,5.73
2017-07-31T21:22:08.296Z,5.47
2017-07-31T21:24:39.410Z,5.77
2017-07-31T21:27:12.398Z,5.57
2017-07-31T21:29:44.460Z,6.10
2017-07-31T21:32:18.680Z,6.20
2017-07-31T21:34:50.972Z,5.70
2017-07-31T21:37:22.519Z,6.57
2017-07-31T21:39:54.566Z,6.17
2017-07-31T21:42:28.080Z,6.27
2017-07-31T21:44:59.629Z,5.90
2017-07-31T21:47:31.691Z,6.30
2017-07-31T21:50:04.990Z,6.00
2017-07-31T21:52:38.589Z,5.67
2017-07-31T21:55:10.304Z,5.73
2017-07-31T21:57:43.322Z,6.00
2017-07-31T22:00:15.340Z,5.90
2017-07-31T22:02:47.150Z,5.87
2017-07-31T22:05:17.990Z,6.07
2017-07-31T22:07:52.206Z,6.00
2017-07-31T22:10:23.042Z,7.10
2017-07-31T22:12:54.481Z,6.37
2017-07-31T22:15:29.501Z,5.87
2017-07-31T22:31:19.724Z,7.37
2017-07-31T22:33:55.256Z,7.50
2017-07-31T22:36:28.774Z,6.90
2017-07-31T22:39:00.310Z,6.62
2017-07-31T22:41:33.300Z,7.27
2017-07-31T22:44:04.440Z,7.43
2017-07-31T22:46:38.346Z,7.60
2017-07-31T22:49:10.416Z,7.70
2017-07-31T22:51:43.932Z,7.00
2017-07-31T22:54:14.546Z,7.00
2017-07-31T22:56:48.452Z,8.83
2017-07-31T22:59:18.982Z,7.97
2017-07-31T23:01:51.043Z,7.10
2017-07-31T23:07:12.964Z,6.73
2017-07-31T23:09:40.500Z,7.23
2017-07-31T23:12:08.049Z,8.40
2017-07-31T23:14:35.621Z,6.87
2017-07-31T23:17:03.157Z,7.00
2017-07-31T23:19:30.696Z,7.20
2017-07-31T23:21:58.268Z,6.97
2017-07-31T23:24:25.832Z,7.50
2017-07-31T23:26:53.385Z,7.33
2017-07-31T23:29:20.976Z,6.90
2017-07-31T23:31:48.508Z,6.90
2017-07-31T23:34:16.457Z,6.60
2017-07-31T23:36:44.197Z,7.30
2017-07-31T23:39:11.736Z,7.37
2017-07-31T23:41:39.280Z,7.30
2017-07-31T23:44:06.840Z,6.63
2017-07-31T23:46:34.433Z,6.40
2017-07-31T23:49:02.745Z,7.73
2017-07-31T23:51:30.360Z,7.27
2017-07-31T23:53:57.909Z,7.97
2017-07-31T23:56:25.489Z,7.23
2017-07-31T23:58:53.073Z,6.80
